• Join FlightAware (Why Join?)
  • Login
  • US Flag 
03:01PM EDT


 

Airport Tracker/Info


-or-


 

Live Flight TrackerFlight Track Log ✈ UCA3596 ✈ 07-Oct-2013 ✈ KBGM - KIAD

Flight Track Log - Related Links

Times and Time Zones

All times are in EDT time to prevent confusion due to time zone crossing. See the UCA3596 flight status page for this flight to view local times or setup timezone preferences in your user account.

Time Position Orientation Groundspeed Altitude Reporting Facility
EDT Latitude Longitude Course Direction KTS MPH feet Rate Location/Type
02:56PM 42.2442 -76.0258 232° Southwest 153 176 3,100  Level New York Center
02:57PM 42.2194 -76.0686 232° Southwest 153 176 4,500 1,260 Climbing New York Center
02:58PM 42.1803 -76.1047 214° Southwest 160 184 5,700 1,200 Climbing New York Center
02:59PM 42.1394 -76.1378 211° Southwest 166 191 7,000 1,260 Climbing New York Center
03:00PM 42.1028 -76.1653 209° Southwest 166 191 8,300 1,200 Climbing New York Center
03:01PM 42.0658 -76.1958 212° Southwest 166 191 9,500 1,200 Climbing New York Center
03:02PM 42.0272 -76.2261 210° Southwest 171 197 10,800 1,140 Climbing New York Center
03:03PM 41.9906 -76.2539 209° Southwest 165 190 11,800 1,020 Climbing New York Center
03:04PM 41.9600 -76.2819 214° Southwest 159 183 12,900 1,080 Climbing New York Center
03:05PM 41.9253 -76.3100 211° Southwest 149 171 14,000 600 Climbing New York Center
03:06PM 41.8800 -76.3450 210° Southwest 161 185 14,100  Climbing New York Center
03:07PM 41.8408 -76.3781 212° Southwest 177 204 14,000 -60 Descending New York Center
03:08PM 41.7933 -76.4158 211° Southwest 188 216 14,000  Level New York Center
03:09PM 41.7458 -76.4506 209° Southwest 199 229 14,000  Level New York Center
03:10PM 41.6939 -76.4933 212° Southwest 199 229 14,000  Level New York Center
03:11PM 41.6483 -76.5283 210° Southwest 194 223 14,000  Level New York Center
03:12PM 41.6028 -76.5661 212° Southwest 194 223 14,000  Level New York Center
03:13PM 41.5617 -76.5986 211° Southwest 194 223 14,000  Level New York Center
03:14PM 41.5161 -76.6333 210° Southwest 194 223 14,000  Level New York Center
03:15PM 41.4642 -76.6758 212° Southwest 194 223 14,000  Level New York Center
03:16PM 41.4233 -76.7028 206° Southwest 194 223 14,000  Level New York Center
03:17PM 41.3683 -76.7144 189° South 188 216 14,000  Level New York Center
03:18PM 41.3133 -76.7319 193° South 198 228 14,000  Level New York Center
03:19PM 41.2625 -76.7494 195° South 198 228 14,000  Level New York Center
03:20PM 41.2097 -76.7642 192° South 198 228 14,000  Level New York Center
03:21PM 41.1547 -76.7811 193° South 203 234 14,000  Level New York Center
03:22PM 41.1019 -76.7958 192° South 203 234 14,000  Level New York Center
03:23PM 41.0489 -76.8131 194° South 208 239 14,000  Level New York Center
03:24PM 40.9939 -76.8275 191° South 208 239 14,000  Level New York Center
03:25PM 40.9389 -76.8447 193° South 208 239 14,000  Level New York Center
03:26PM 40.8883 -76.8567 190° South 208 239 14,000  Level New York Center
03:27PM 40.8311 -76.8761 194° South 208 239 14,000  Level New York Center
03:28PM 40.7825 -76.8883 191° South 208 239 14,000  Level New York Center
03:29PM 40.7231 -76.9075 194° South 208 239 14,000  Level New York Center
03:30PM 40.6722 -76.9222 192° South 208 239 14,000  Level New York Center
03:31PM 40.6150 -76.9417 194° South 208 239 14,000  Level New York Center
03:32PM 40.5683 -76.9567 194° South 208 239 14,000  Level New York Center
03:33PM 40.5089 -76.9758 194° South 208 239 14,000 -60 Level New York Center
03:34PM 40.4561 -76.9903 192° South 208 239 13,900 -540 Descending New York Center
03:35PM 40.3925 -77.0117 194° South 208 239 13,000 -900 Descending New York Center
03:37PM 40.2717 -77.0472 193° South 227 261 11,200 -900 Descending New York Center
03:39PM 40.1333 -77.0833 191° South 238 274 9,300 -720 Descending Potomac TRACON
03:40PM 40.0833 -77.1000 194° South 236 272 9,100 -120 Descending Potomac TRACON
03:41PM 40.0167 -77.1167 191° South 220 253 9,100  Level Potomac TRACON
03:42PM 39.9500 -77.1500 201° Southwest 218 251 9,100  Level Potomac TRACON
03:43PM 39.9000 -77.1667 194° South 216 249 9,100  Level Potomac TRACON
03:44PM 39.8500 -77.1833 194° South 210 242 9,100  Level Potomac TRACON
03:45PM 39.8000 -77.2167 207° Southwest 189 217 9,100 -300 Level Potomac TRACON
03:46PM 39.7500 -77.2500 207° Southwest 202 232 8,600 -540 Descending Potomac TRACON
03:47PM 39.7000 -77.2833 207° Southwest 212 244 8,100 -300 Descending Potomac TRACON
03:48PM 39.6500 -77.3167 207° Southwest 221 254 8,100 -300 Level Potomac TRACON
03:49PM 39.6000 -77.3333 194° South 229 264 7,500 -660 Descending Potomac TRACON
03:50PM 39.5333 -77.3500 191° South 236 272 6,800 -720 Descending Potomac TRACON
03:51PM 39.4667 -77.3500 180° South 237 273 6,100 -720 Descending Potomac TRACON
03:52PM 39.4000 -77.3667 191° South 242 278 5,400 -720 Descending Potomac TRACON
03:53PM 39.3333 -77.3667 180° South 245 282 4,800 -720 Descending Potomac TRACON
03:54PM 39.2667 -77.3667 180° South 241 277 4,100 -360 Descending Potomac TRACON
03:55PM 39.2000 -77.3500 169° South 238 274 4,100  Level Potomac TRACON
03:56PM 39.1333 -77.3500 180° South 238 274 4,100  Level Potomac TRACON
03:57PM 39.0667 -77.3500 180° South 239 275 4,100  Level Potomac TRACON
03:58PM 39.0000 -77.3500 180° South 239 275 4,100  Level Potomac TRACON
03:59PM 38.9333 -77.3500 180° South 242 278 4,100 -60 Level Potomac TRACON
04:00PM 38.8667 -77.3500 180° South 235 270 4,000 -540 Descending Potomac TRACON
04:01PM 38.8167 -77.3667 195° South 219 252 3,100 -480 Descending Potomac TRACON
04:02PM 38.7500 -77.3667 180° South 224 258 3,100 -60 Level Potomac TRACON
04:03PM 38.7000 -77.3667 180° South 209 241 3,000 -60 Descending Potomac TRACON
04:04PM 38.6833 -77.4167 247° West 196 226 3,000  Level Potomac TRACON
04:05PM 38.7167 -77.4333 339° North 202 232 3,000  Level Potomac TRACON
04:06PM 38.7833 -77.4333 360° North 204 235 3,000 -420 Level Potomac TRACON
04:07PM 38.8333 -77.4333 360° North 178 205 2,200 -840 Descending Potomac TRACON
04:08PM 38.8667 -77.4333 360° North 146 168 1,400 -780 Descending Potomac TRACON
04:09PM 38.9000 -77.4333 360° North 127 146 800 -780 Descending Potomac TRACON
04:11PM 38.9333 -77.4500 349° North  Level FlightAware Approximate
04:18PM 38.9474 -77.4599 349° North  Level Estimated